Terminal Aerodrome Forecast
Issued by NWS Riverton, WY

Home | Current Version | Previous Version | Text Only | Print | Product List | Glossary On
Versions: 1 2 3 4 5 6 7 8 9 10 11 12 13 14 15
000
FTUS45 KRIW 231100
TAFRIW
TAF
KRIW 231140Z 2312/2412 VRB05KT P6SM VCFG FEW015 SCT080 BKN150
      TEMPO 2312/2314 5SM BR SCT005
     FM231500 VRB05KT P6SM SCT080 BKN150
     FM232000 28012G20KT P6SM VCSH SCT080 BKN150
     FM240130 36012G20KT P6SM VCSH BKN060
     FM240700 36010KT P6SM BKN020=

USA.gov is the U.S. government's official web portal to all federal, state and local government web resources and services.